Time;durP1;ratioP1;P1;durP2;ratioP2;P2;SDS_P1;SDS_P2;PMS_P1;PMS_P2;Temp;Humidity;BMP_temperature;BMP_pressure;BME280_temperature;BME280_humidity;BME280_pressure;Samples;Min_cycle;Max_cycle;Signal;HPM_P1;HPM_P2
2022/12/30 00:01:31;;;;;;;34.28;5.95;;;;;;;6.28;100.00;100721.00;4985306;28;20458;-91
2022/12/30 00:03:56;;;;;;;26.58;5.85;;;;;;;6.34;100.00;100709.63;4994776;28;20528;-91
2022/12/30 00:06:23;;;;;;;30.45;7.22;;;;;;;6.47;100.00;100730.63;4984436;28;20534;-90
2022/12/30 00:08:55;;;;;;;21.15;4.60;;;;;;;6.53;100.00;100748.69;4984039;28;20105;-92
2022/12/30 00:11:26;;;;;;;26.85;6.90;;;;;;;6.33;100.00;100725.50;5000501;28;20021;-90
2022/12/30 00:34:31;;;;;;;37.30;5.90;;;;;;;6.44;100.00;100731.38;4985847;28;20496;-90
2022/12/30 00:36:57;;;;;;;37.22;5.72;;;;;;;6.27;100.00;100729.69;4998037;28;20036;-90
2022/12/30 00:39:22;;;;;;;34.42;6.78;;;;;;;6.41;100.00;100740.38;4996745;28;20023;-90
2022/12/30 00:44:32;;;;;;;29.10;5.93;;;;;;;6.36;100.00;100754.56;4985606;28;20137;-90
2022/12/30 00:46:58;;;;;;;32.13;5.18;;;;;;;6.31;100.00;100753.63;4984570;28;20034;-91
2022/12/30 00:57:36;;;;;;;24.63;5.20;;;;;;;6.32;100.00;100757.22;4989020;28;20049;-91
2022/12/30 01:00:01;;;;;;;31.70;6.13;;;;;;;6.33;100.00;100747.72;4988621;28;20030;-91
2022/12/30 01:02:27;;;;;;;28.00;5.80;;;;;;;6.33;100.00;100766.38;4985736;28;20504;-91
2022/12/30 01:04:53;;;;;;;33.33;7.68;;;;;;;6.16;100.00;100762.72;5002136;28;20112;-91
2022/12/30 01:07:19;;;;;;;36.55;6.70;;;;;;;6.21;100.00;100761.66;4982556;28;20109;-91
2022/12/30 01:09:44;;;;;;;23.63;5.57;;;;;;;6.20;100.00;100776.69;4984126;28;20042;-90
2022/12/30 01:12:09;;;;;;;28.70;5.53;;;;;;;6.28;100.00;100754.34;4984063;28;20033;-91
2022/12/30 01:14:35;;;;;;;24.92;7.50;;;;;;;6.16;100.00;100786.94;4983980;28;20035;-90
2022/12/30 01:17:00;;;;;;;36.10;6.22;;;;;;;6.07;100.00;100770.34;4996022;28;20406;-91
2022/12/30 01:19:25;;;;;;;22.17;5.22;;;;;;;6.08;100.00;100783.09;4985236;28;20030;-91
2022/12/30 01:21:51;;;;;;;36.13;6.18;;;;;;;5.84;100.00;100775.56;4988108;28;20125;-90
2022/12/30 01:24:16;;;;;;;31.65;6.00;;;;;;;6.13;100.00;100802.31;4981694;28;20505;-91
2022/12/30 01:26:42;;;;;;;31.80;6.88;;;;;;;6.16;100.00;100798.03;4996605;28;20030;-91
2022/12/30 01:29:07;;;;;;;33.42;6.15;;;;;;;6.07;100.00;100781.47;4999861;28;20486;-92
2022/12/30 01:31:32;;;;;;;38.72;6.55;;;;;;;6.29;100.00;100808.78;5001642;28;20030;-91
2022/12/30 01:33:58;;;;;;;21.50;5.05;;;;;;;6.25;100.00;100821.75;4993349;28;20018;-90
2022/12/30 01:36:23;;;;;;;23.27;5.93;;;;;;;6.16;100.00;100834.97;4987742;28;20089;-91
2022/12/30 01:38:48;;;;;;;16.83;4.00;;;;;;;6.20;100.00;100833.13;5006692;28;20112;-91
2022/12/30 01:41:14;;;;;;;23.58;4.95;;;;;;;6.30;100.00;100823.47;4985756;28;20688;-91
2022/12/30 01:43:44;;;;;;;39.35;7.25;;;;;;;6.06;100.00;100814.00;4986857;28;20040;-91
2022/12/30 01:46:15;;;;;;;25.58;6.63;;;;;;;6.23;100.00;100851.06;4986369;28;20030;-91
2022/12/30 01:48:41;;;;;;;22.73;5.43;;;;;;;6.28;100.00;100848.88;4986388;28;20022;-92
2022/12/30 01:51:11;;;;;;;32.15;4.40;;;;;;;6.19;100.00;100848.16;4989774;28;20540;-91
2022/12/30 01:53:43;;;;;;;21.50;4.25;;;;;;;6.30;100.00;100841.00;4993838;28;20549;-91
2022/12/30 01:56:14;;;;;;;30.77;5.32;;;;;;;6.16;100.00;100839.72;4988799;28;20030;-91
2022/12/30 01:58:46;;;;;;;28.45;5.82;;;;;;;6.13;100.00;100840.41;4995610;28;20034;-91
2022/12/30 02:01:13;;;;;;;13.18;4.20;;;;;;;6.28;100.00;100851.66;4999048;28;20034;-90
2022/12/30 02:03:44;;;;;;;28.70;5.15;;;;;;;6.28;100.00;100853.59;5004925;28;20120;-92
2022/12/30 02:06:11;;;;;;;30.17;6.60;;;;;;;6.05;100.00;100856.03;4995640;28;20406;-91
2022/12/30 02:08:37;;;;;;;47.60;8.43;;;;;;;6.20;100.00;100849.81;4984735;28;20046;-91
2022/12/30 02:11:05;;;;;;;25.08;6.22;;;;;;;6.16;100.00;100848.88;4981742;28;20023;-91
2022/12/30 02:13:31;;;;;;;25.83;4.50;;;;;;;6.16;100.00;100840.53;4978783;28;20034;-91
2022/12/30 02:15:57;;;;;;;21.70;3.47;;;;;;;6.18;100.00;100845.75;4981074;28;20053;-91
2022/12/30 02:18:48;;;;;;;19.33;4.53;;;;;;;5.89;100.00;100817.81;4978586;28;20030;-91
2022/12/30 02:21:26;;;;;;;20.15;4.43;;;;;;;6.04;100.00;100837.75;4995036;28;20359;-91
2022/12/30 02:24:30;;;;;;;29.25;5.97;;;;;;;5.96;100.00;100808.94;4995332;28;20026;-91
2022/12/30 02:27:01;;;;;;;20.38;4.97;;;;;;;5.91;100.00;100829.38;4996904;28;20038;-90
2022/12/30 02:29:54;;;;;;;24.50;4.28;;;;;;;5.93;100.00;100820.72;4999067;28;20045;-91
2022/12/30 02:32:36;;;;;;;14.68;3.92;;;;;;;5.95;100.00;100817.63;4993576;28;20029;-91
2022/12/30 02:35:29;;;;;;;24.80;5.33;;;;;;;5.98;100.00;100825.25;4996902;28;20524;-91
2022/12/30 02:38:08;;;;;;;19.60;3.75;;;;;;;5.94;100.00;100802.88;4995112;28;20026;-92
2022/12/30 02:46:29;;;;;;;14.63;4.45;;;;;;;6.00;100.00;100831.28;4985232;28;20040;-91
2022/12/30 02:48:57;;;;;;;26.83;4.60;;;;;;;5.86;100.00;100826.03;4997025;28;20027;-92
2022/12/30 02:54:08;;;;;;;19.67;4.53;;;;;;;5.93;100.00;100822.69;4986023;28;20041;-91
2022/12/30 02:56:33;;;;;;;21.60;5.68;;;;;;;5.87;100.00;100813.78;4982800;28;20031;-91
2022/12/30 03:05:18;;;;;;;26.67;6.23;;;;;;;5.87;100.00;100805.44;4982526;28;20058;-90
2022/12/30 03:08:11;;;;;;;25.45;4.45;;;;;;;5.84;100.00;100806.13;4981541;28;20284;-90
2022/12/30 03:13:55;;;;;;;24.70;5.88;;;;;;;5.85;100.00;100796.66;4984046;28;20742;-91
2022/12/30 03:16:34;;;;;;;28.52;5.05;;;;;;;5.98;100.00;100812.16;4998896;28;20018;-92
2022/12/30 03:19:03;;;;;;;20.13;4.05;;;;;;;6.06;100.00;100816.00;4982507;28;20112;-90
2022/12/30 03:21:32;;;;;;;36.05;6.38;;;;;;;6.15;100.00;100811.09;4985166;28;20034;-93
2022/12/30 03:27:03;;;;;;;30.13;5.18;;;;;;;5.79;100.00;100798.03;4986907;28;20061;-90
2022/12/30 03:29:50;;;;;;;29.25;4.70;;;;;;;5.65;100.00;100820.56;4998708;28;20062;-91
2022/12/30 03:32:17;;;;;;;19.92;6.40;;;;;;;5.99;100.00;100824.91;4982547;28;20414;-91
2022/12/30 03:34:43;;;;;;;15.98;4.07;;;;;;;5.98;100.00;100816.91;5004656;28;20538;-92
2022/12/30 03:37:24;;;;;;;32.63;6.78;;;;;;;5.73;100.00;100830.78;4988330;28;20510;-92
2022/12/30 03:40:39;;;;;;;20.33;4.82;;;;;;;5.71;100.00;100813.63;4987229;28;20085;-92
2022/12/30 03:43:06;;;;;;;18.10;4.55;;;;;;;5.78;100.00;100826.97;4982744;28;20038;-92
2022/12/30 03:45:32;;;;;;;29.05;5.75;;;;;;;5.72;100.00;100823.59;5000563;28;20221;-91
2022/12/30 03:47:57;;;;;;;18.65;4.07;;;;;;;5.62;100.00;100799.06;4990507;28;20074;-91
2022/12/30 03:50:23;;;;;;;24.88;6.85;;;;;;;5.56;100.00;100831.00;4993437;28;20026;-91
2022/12/30 03:52:49;;;;;;;26.50;6.00;;;;;;;5.45;100.00;100800.09;5004471;28;20046;-90
2022/12/30 03:55:14;;;;;;;27.05;6.85;;;;;;;5.48;100.00;100803.00;4994490;28;20076;-91
2022/12/30 03:57:40;;;;;;;20.27;5.53;;;;;;;5.72;100.00;100833.91;4990606;28;20034;-91
2022/12/30 04:00:08;;;;;;;21.73;4.68;;;;;;;5.74;100.00;100843.50;5005760;28;20140;-91
2022/12/30 04:02:35;;;;;;;24.40;5.85;;;;;;;5.52;100.00;100836.41;5009901;28;20087;-90
2022/12/30 04:05:00;;;;;;;23.77;5.18;;;;;;;5.50;100.00;100824.84;4978919;28;20493;-91
2022/12/30 04:07:26;;;;;;;22.70;5.03;;;;;;;5.70;100.00;100825.91;5002737;28;20117;-91
2022/12/30 04:09:51;;;;;;;20.70;5.18;;;;;;;5.62;100.00;100810.16;4985896;28;20026;-92
2022/12/30 04:12:17;;;;;;;20.88;5.05;;;;;;;5.44;100.00;100813.16;4985462;28;20113;-92
2022/12/30 04:14:42;;;;;;;23.40;5.32;;;;;;;5.54;100.00;100813.88;4996395;28;20063;-92
2022/12/30 04:17:08;;;;;;;22.00;7.75;;;;;;;5.67;100.00;100829.38;4981246;28;20058;-92
2022/12/30 04:19:33;;;;;;;30.65;6.47;;;;;;;5.59;100.00;100821.97;4996583;28;20026;-90
2022/12/30 04:21:58;;;;;;;16.17;4.78;;;;;;;5.39;100.00;100802.28;4982499;28;20027;-91
2022/12/30 04:24:24;;;;;;;30.52;5.88;;;;;;;5.48;100.00;100804.94;4982444;28;20061;-91
2022/12/30 04:26:50;;;;;;;28.30;8.30;;;;;;;5.48;100.00;100829.94;4981126;28;20520;-91
2022/12/30 04:29:15;;;;;;;26.98;5.63;;;;;;;5.33;100.00;100820.31;4982366;28;20031;-91
2022/12/30 04:31:41;;;;;;;21.83;5.45;;;;;;;5.46;100.00;100819.19;4978648;28;20022;-91
2022/12/30 04:34:06;;;;;;;19.42;4.75;;;;;;;5.38;100.00;100835.94;4987421;28;20081;-91
2022/12/30 04:36:32;;;;;;;34.72;8.00;;;;;;;5.30;100.00;100801.56;5001821;28;20052;-92
2022/12/30 04:38:57;;;;;;;15.50;5.15;;;;;;;5.13;100.00;100796.22;4982514;28;20090;-91
2022/12/30 04:41:22;;;;;;;20.15;4.50;;;;;;;5.16;100.00;100820.50;4994706;28;20067;-91
2022/12/30 04:43:48;;;;;;;21.48;4.45;;;;;;;5.11;100.00;100802.09;4985447;28;20062;-91
2022/12/30 04:46:13;;;;;;;20.77;6.07;;;;;;;5.15;100.00;100791.16;4985482;28;20037;-92
2022/12/30 04:48:39;;;;;;;24.55;5.45;;;;;;;5.17;100.00;100824.91;4986208;28;20030;-92
2022/12/30 04:51:05;;;;;;;32.15;5.63;;;;;;;5.07;100.00;100798.41;4987087;28;20533;-92
2022/12/30 04:53:31;;;;;;;16.20;4.78;;;;;;;5.25;100.00;100818.47;5000680;28;20023;-93
2022/12/30 04:55:57;;;;;;;18.98;5.28;;;;;;;5.33;100.00;100823.06;4985975;28;20096;-92
2022/12/30 04:58:23;;;;;;;15.43;5.28;;;;;;;5.27;100.00;100824.44;5000332;28;20479;-93
2022/12/30 05:00:51;;;;;;;32.10;5.88;;;;;;;4.92;100.00;100788.75;4997825;28;20398;-91
2022/12/30 05:03:16;;;;;;;25.50;5.72;;;;;;;5.19;100.00;100819.81;4983025;28;20458;-91
2022/12/30 05:05:42;;;;;;;23.40;5.70;;;;;;;5.12;100.00;100836.22;4986794;28;20061;-91
2022/12/30 05:08:07;;;;;;;21.02;6.70;;;;;;;4.88;100.00;100821.09;4997941;28;20101;-91
2022/12/30 05:10:34;;;;;;;26.13;6.88;;;;;;;5.28;100.00;100834.41;4986583;28;20130;-91
2022/12/30 05:12:59;;;;;;;24.85;6.13;;;;;;;5.21;100.00;100823.06;4983190;28;20117;-90
2022/12/30 05:15:25;;;;;;;30.52;6.32;;;;;;;5.06;100.00;100816.22;4980539;28;20037;-91
2022/12/30 05:17:50;;;;;;;34.30;7.50;;;;;;;4.94;100.00;100836.38;4980762;28;20034;-92
2022/12/30 05:20:16;;;;;;;20.30;5.20;;;;;;;5.02;100.00;100809.72;4987413;28;20030;-91
2022/12/30 05:22:41;;;;;;;13.73;3.47;;;;;;;5.05;100.00;100831.22;4998095;28;20412;-91
2022/12/30 05:27:51;;;;;;;17.83;5.88;;;;;;;5.21;100.00;100834.16;4983831;28;20046;-92
2022/12/30 05:30:17;;;;;;;21.80;5.03;;;;;;;4.99;100.00;100816.75;4983149;28;20034;-91
2022/12/30 05:32:42;;;;;;;20.65;4.85;;;;;;;5.23;100.00;100815.22;4982259;28;20497;-92
2022/12/30 05:35:08;;;;;;;26.55;6.00;;;;;;;5.11;100.00;100813.22;4986401;28;20045;-91
2022/12/30 05:37:33;;;;;;;26.98;6.10;;;;;;;5.32;100.00;100835.34;5001673;28;20030;-90
2022/12/30 05:39:59;;;;;;;30.02;5.30;;;;;;;5.21;100.00;100823.88;4984840;28;20026;-92
2022/12/30 05:42:24;;;;;;;18.88;4.75;;;;;;;5.01;100.00;100805.31;4979992;28;20829;-92
2022/12/30 05:44:49;;;;;;;19.05;4.63;;;;;;;5.13;100.00;100824.78;4984629;28;20033;-91
2022/12/30 05:47:15;;;;;;;30.30;6.55;;;;;;;4.76;100.00;100796.88;4983387;28;20053;-91
2022/12/30 05:49:40;;;;;;;18.50;3.92;;;;;;;4.93;100.00;100795.09;4999316;28;20042;-92
2022/12/30 05:52:06;;;;;;;23.30;5.63;;;;;;;4.91;100.00;100808.50;4981906;28;20394;-91
2022/12/30 05:54:31;;;;;;;19.88;4.50;;;;;;;4.89;100.00;100819.94;4982559;28;20026;-92
2022/12/30 05:56:57;;;;;;;16.30;4.30;;;;;;;4.99;100.00;100799.28;4998028;28;20512;-92
2022/12/30 05:59:22;;;;;;;20.95;6.20;;;;;;;4.89;100.00;100786.66;4979974;28;20541;-91
2022/12/30 06:01:50;;;;;;;17.92;5.82;;;;;;;4.90;100.00;100807.72;4974606;28;20038;-91
2022/12/30 06:04:17;;;;;;;24.00;5.90;;;;;;;4.71;100.00;100793.53;4983077;28;20474;-92
2022/12/30 06:06:43;;;;;;;27.98;5.03;;;;;;;4.97;100.00;100796.06;4985338;28;20026;-91
2022/12/30 06:09:08;;;;;;;26.40;4.45;;;;;;;5.03;100.00;100803.81;4987540;28;20030;-91
2022/12/30 06:11:33;;;;;;;21.40;5.28;;;;;;;4.92;100.00;100812.91;4983838;28;20026;-91
2022/12/30 06:13:59;;;;;;;26.25;4.57;;;;;;;5.02;100.00;100804.19;4984446;28;20160;-91
2022/12/30 06:16:24;;;;;;;14.30;3.92;;;;;;;4.74;100.00;100784.53;4980181;28;20176;-92
2022/12/30 06:18:50;;;;;;;27.25;6.22;;;;;;;5.06;100.00;100794.00;4982481;28;20030;-91
2022/12/30 06:21:16;;;;;;;35.40;5.60;;;;;;;4.89;100.00;100767.25;4976179;28;20026;-92
2022/12/30 06:23:41;;;;;;;25.95;4.82;;;;;;;4.94;100.00;100792.00;4979412;28;20525;-90
2022/12/30 06:26:07;;;;;;;25.35;4.68;;;;;;;5.04;100.00;100786.03;4982509;28;20134;-92
2022/12/30 06:28:32;;;;;;;18.17;4.40;;;;;;;4.88;100.00;100793.38;4979446;28;20026;-91
2022/12/30 06:30:58;;;;;;;24.35;5.28;;;;;;;4.75;100.00;100762.00;4977436;28;20431;-91
2022/12/30 06:33:23;;;;;;;26.63;5.32;;;;;;;4.55;100.00;100751.75;4993966;28;20429;-91
2022/12/30 06:35:49;;;;;;;19.10;4.78;;;;;;;4.83;100.00;100780.53;4984886;28;20030;-91
2022/12/30 06:38:14;;;;;;;22.40;4.85;;;;;;;4.73;100.00;100775.41;4997683;28;20019;-90
2022/12/30 06:40:40;;;;;;;31.27;4.45;;;;;;;4.90;100.00;100779.97;4996467;28;20037;-91
2022/12/30 06:43:05;;;;;;;25.40;6.38;;;;;;;4.91;100.00;100781.56;4976736;28;20394;-90
2022/12/30 06:45:31;;;;;;;31.60;6.43;;;;;;;4.88;100.00;100771.19;4994575;28;20059;-91
2022/12/30 06:47:56;;;;;;;34.10;8.55;;;;;;;4.80;100.00;100780.41;4997213;28;20033;-91
2022/12/30 06:50:22;;;;;;;39.08;5.45;;;;;;;4.66;100.00;100780.69;4997161;28;20038;-91
2022/12/30 06:52:47;;;;;;;18.52;5.82;;;;;;;4.88;100.00;100782.28;4983933;28;20026;-91
2022/12/30 06:55:12;;;;;;;21.08;6.05;;;;;;;4.82;100.00;100789.19;4985736;28;20040;-90
2022/12/30 06:57:38;;;;;;;23.88;4.85;;;;;;;4.77;100.00;100783.84;4991359;28;20085;-91
2022/12/30 07:00:05;;;;;;;23.05;5.07;;;;;;;4.82;100.00;100778.09;4982267;28;20113;-92
2022/12/30 07:02:31;;;;;;;39.55;9.18;;;;;;;4.66;100.00;100775.97;4983125;28;20030;-92
2022/12/30 07:04:57;;;;;;;40.85;6.80;;;;;;;4.72;100.00;100772.97;4984149;28;20510;-92
2022/12/30 07:07:22;;;;;;;48.88;7.57;;;;;;;4.76;100.00;100765.59;5004805;28;20073;-92
2022/12/30 07:09:48;;;;;;;22.48;5.53;;;;;;;4.68;100.00;100743.16;4987231;28;20036;-92
2022/12/30 07:12:13;;;;;;;38.63;7.10;;;;;;;4.44;100.00;100745.81;4979323;28;20052;-91
2022/12/30 07:14:38;;;;;;;27.80;6.10;;;;;;;4.82;100.00;100761.44;4985930;28;20382;-89
2022/12/30 07:17:04;;;;;;;26.75;6.32;;;;;;;4.51;100.00;100723.09;5000836;28;20038;-91
2022/12/30 07:19:29;;;;;;;30.83;5.68;;;;;;;4.50;100.00;100758.31;4984615;28;20622;-91
2022/12/30 07:21:55;;;;;;;25.88;4.70;;;;;;;4.47;100.00;100745.97;4994863;28;20030;-91
2022/12/30 07:24:20;;;;;;;31.67;6.25;;;;;;;4.66;100.00;100744.66;4984088;28;20038;-91
2022/12/30 07:26:46;;;;;;;23.38;5.40;;;;;;;4.73;100.00;100758.78;4979920;28;20050;-92
2022/12/30 07:29:12;;;;;;;25.63;6.93;;;;;;;4.67;100.00;100740.72;4979581;28;20030;-92
2022/12/30 07:31:39;;;;;;;25.88;6.38;;;;;;;4.77;100.00;100747.81;4996408;28;21271;-90
2022/12/30 07:34:04;;;;;;;21.10;5.00;;;;;;;4.59;100.00;100714.69;4986333;28;20030;-91
2022/12/30 07:36:30;;;;;;;22.42;6.05;;;;;;;4.74;100.00;100734.63;4978089;28;20041;-91
2022/12/30 07:38:59;;;;;;;23.23;5.55;;;;;;;4.65;100.00;100738.28;4988130;28;20156;-92
2022/12/30 07:41:25;;;;;;;24.90;7.05;;;;;;;4.67;100.00;100724.09;5000851;28;20038;-92
2022/12/30 07:43:50;;;;;;;23.20;5.97;;;;;;;4.57;100.00;100730.84;4980267;28;20030;-92
2022/12/30 07:46:16;;;;;;;16.38;5.43;;;;;;;4.75;100.00;100736.25;4979001;28;20390;-90
2022/12/30 07:48:41;;;;;;;26.10;5.82;;;;;;;4.59;100.00;100728.56;4982402;28;20025;-91
2022/12/30 07:51:13;;;;;;;32.60;6.35;;;;;;;4.47;100.00;100715.47;4984965;28;20037;-93
2022/12/30 07:53:39;;;;;;;26.52;6.60;;;;;;;4.48;100.00;100714.31;4980051;28;20085;-91
2022/12/30 07:56:06;;;;;;;42.22;6.40;;;;;;;4.62;100.00;100702.94;4983326;28;20062;-92
2022/12/30 07:58:32;;;;;;;29.23;7.10;;;;;;;4.45;100.00;100684.53;5001248;28;20057;-91
2022/12/30 08:01:01;;;;;;;46.88;8.68;;;;;;;4.56;100.00;100697.94;4982221;28;20489;-91
2022/12/30 08:03:27;;;;;;;48.22;8.82;;;;;;;4.61;100.00;100711.59;4978796;28;20026;-92
2022/12/30 08:05:52;;;;;;;24.10;6.47;;;;;;;4.59;100.00;100686.16;4982464;28;20118;-92
2022/12/30 08:08:18;;;;;;;37.00;9.90;;;;;;;4.73;100.00;100696.97;4983500;28;20023;-91
2022/12/30 08:10:54;;;;;;;34.72;6.70;;;;;;;4.77;100.00;100695.13;4996180;28;20057;-92
2022/12/30 08:13:19;;;;;;;23.15;6.50;;;;;;;4.76;100.00;100697.06;5002641;28;20038;-91
2022/12/30 08:15:45;;;;;;;29.00;6.32;;;;;;;4.67;100.00;100658.34;4990015;28;23045;-92
2022/12/30 08:18:10;;;;;;;34.17;9.18;;;;;;;4.68;100.00;100659.19;4988484;28;20025;-89
2022/12/30 08:20:36;;;;;;;23.58;5.78;;;;;;;4.70;100.00;100654.06;4993529;28;20039;-91
2022/12/30 08:23:01;;;;;;;31.15;6.35;;;;;;;4.80;100.00;100663.91;4984397;28;20040;-93
2022/12/30 08:25:26;;;;;;;30.60;6.57;;;;;;;4.89;100.00;100668.22;4985598;28;20521;-92
2022/12/30 08:27:52;;;;;;;30.20;6.97;;;;;;;4.69;100.00;100642.19;4980863;28;20061;-91
2022/12/30 08:30:17;;;;;;;26.67;7.43;;;;;;;4.61;100.00;100623.69;4999746;28;20034;-91
2022/12/30 08:32:42;;;;;;;32.58;7.78;;;;;;;4.96;100.00;100639.13;4976955;28;20037;-93
2022/12/30 08:35:08;;;;;;;26.77;7.07;;;;;;;4.89;100.00;100631.34;4980979;28;20061;-92
2022/12/30 08:37:34;;;;;;;23.50;7.35;;;;;;;5.02;100.00;100649.63;4979163;28;20034;-91
2022/12/30 08:39:59;;;;;;;32.92;8.30;;;;;;;5.06;100.00;100645.00;4981201;28;20022;-90
2022/12/30 08:42:25;;;;;;;23.48;6.80;;;;;;;4.95;100.00;100640.25;4976578;28;20030;-91
2022/12/30 08:44:50;;;;;;;32.45;7.25;;;;;;;4.96;100.00;100639.13;4977347;28;20480;-91
2022/12/30 08:47:16;;;;;;;41.25;8.10;;;;;;;5.03;100.00;100640.13;4993584;28;20054;-90
2022/12/30 08:49:41;;;;;;;30.05;6.50;;;;;;;4.92;100.00;100610.44;4973544;28;20489;-90
2022/12/30 08:52:07;;;;;;;30.35;7.30;;;;;;;5.02;100.00;100638.53;4990915;28;20026;-91
2022/12/30 08:54:32;;;;;;;25.23;6.65;;;;;;;5.06;100.00;100633.91;4977348;28;20038;-91
2022/12/30 08:56:58;;;;;;;25.48;6.65;;;;;;;5.04;100.00;100643.75;4973696;28;20038;-90
2022/12/30 08:59:23;;;;;;;35.13;7.40;;;;;;;5.34;100.00;100627.66;4980957;28;20026;-84
2022/12/30 09:01:49;;;;;;;28.88;9.38;;;;;;;5.33;100.00;100631.56;4977587;28;20482;-91
2022/12/30 09:04:14;;;;;;;21.58;6.70;;;;;;;5.21;100.00;100617.72;4993088;28;20042;-91
2022/12/30 09:06:41;;;;;;;27.90;7.05;;;;;;;5.27;100.00;100621.84;4986633;28;20035;-92
2022/12/30 09:09:09;;;;;;;30.50;9.07;;;;;;;5.22;100.00;100616.56;4983951;28;20037;-91
2022/12/30 09:11:37;;;;;;;35.47;6.78;;;;;;;5.07;100.00;100591.13;4986272;28;21410;-91
2022/12/30 09:14:04;;;;;;;36.85;6.85;;;;;;;5.17;100.00;100594.59;4983346;28;20112;-91
2022/12/30 09:16:30;;;;;;;32.58;9.20;;;;;;;5.22;100.00;100603.47;4983139;28;20030;-91
2022/12/30 09:18:56;;;;;;;25.17;6.50;;;;;;;5.23;100.00;100593.22;5001248;28;20033;-90
2022/12/30 09:21:21;;;;;;;23.98;6.05;;;;;;;5.07;100.00;100560.59;4983523;28;20116;-90
2022/12/30 09:23:47;;;;;;;24.17;5.68;;;;;;;5.13;100.00;100557.63;5001027;28;20494;-91
2022/12/30 09:26:20;;;;;;;30.02;6.30;;;;;;;5.39;100.00;100580.22;4985660;28;20041;-91
2022/12/30 09:28:46;;;;;;;34.92;7.95;;;;;;;5.40;100.00;100581.84;4983463;28;20023;-92
2022/12/30 09:31:12;;;;;;;25.52;6.72;;;;;;;5.36;100.00;100580.94;4985278;28;20508;-90
2022/12/30 09:33:38;;;;;;;36.72;7.38;;;;;;;5.38;100.00;100567.50;4983046;28;20177;-92
2022/12/30 09:36:04;;;;;;;40.55;14.52;;;;;;;5.42;100.00;100546.22;4984298;28;20034;-91
2022/12/30 09:38:29;;;;;;;25.70;5.88;;;;;;;5.33;100.00;100542.75;4985297;28;20026;-91
2022/12/30 09:40:56;;;;;;;35.25;10.15;;;;;;;5.58;100.00;100567.69;4985406;28;20386;-92
2022/12/30 09:43:43;;;;;;;22.02;7.07;;;;;;;5.63;100.00;100567.44;4999106;28;20083;-92
2022/12/30 09:46:12;;;;;;;27.00;6.03;;;;;;;5.58;100.00;100553.81;4999138;28;20841;-89
2022/12/30 09:49:19;;;;;;;20.15;6.63;;;;;;;5.57;100.00;100543.88;5000682;28;20038;-92
2022/12/30 09:51:51;;;;;;;14.27;6.38;;;;;;;5.81;100.00;100563.19;4979816;28;20053;-91
2022/12/30 09:54:21;;;;;;;47.70;8.90;;;;;;;5.63;100.00;100526.59;4986137;28;20030;-91
2022/12/30 09:56:50;;;;;;;15.57;6.38;;;;;;;5.68;100.00;100525.53;4984797;28;20035;-92
2022/12/30 09:59:50;;;;;;;26.95;8.75;;;;;;;5.74;100.00;100538.00;4999591;28;20026;-92
2022/12/30 10:02:28;;;;;;;23.77;5.97;;;;;;;5.86;100.00;100540.75;4975875;28;20092;-91
2022/12/30 10:04:55;;;;;;;26.65;6.28;;;;;;;5.75;100.00;100522.97;4983429;28;20471;-90
2022/12/30 10:07:29;;;;;;;17.15;6.13;;;;;;;5.99;100.00;100540.72;4984466;28;20054;-92
2022/12/30 10:10:05;;;;;;;15.20;6.28;;;;;;;5.95;100.00;100542.59;4987237;28;20030;-91
2022/12/30 10:12:53;;;;;;;16.92;5.95;;;;;;;5.89;100.00;100534.47;4985412;28;20030;-90
2022/12/30 10:15:36;;;;;;;38.42;8.60;;;;;;;6.01;100.00;100527.25;5000896;28;20034;-91
2022/12/30 10:18:10;;;;;;;19.25;7.18;;;;;;;5.97;100.00;100520.81;4980654;28;20022;-91
2022/12/30 10:20:45;;;;;;;20.05;6.43;;;;;;;6.01;100.00;100513.38;4980078;28;20034;-90
2022/12/30 10:23:13;;;;;;;18.02;6.00;;;;;;;6.03;100.00;100508.25;4999345;28;20037;-90
2022/12/30 10:25:48;;;;;;;22.42;7.07;;;;;;;6.03;100.00;100499.91;4983946;28;20141;-91
2022/12/30 10:28:18;;;;;;;25.42;6.45;;;;;;;6.05;100.00;100495.66;4998499;28;20482;-91
2022/12/30 10:30:48;;;;;;;37.40;9.27;;;;;;;6.07;100.00;100479.44;4983518;28;20445;-92
2022/12/30 10:33:18;;;;;;;33.63;10.70;;;;;;;6.09;100.00;100479.06;4996465;28;20036;-90
2022/12/30 10:35:45;;;;;;;13.70;5.10;;;;;;;6.16;100.00;100462.56;4999396;28;20438;-90
2022/12/30 10:38:14;;;;;;;20.70;5.68;;;;;;;6.14;100.00;100459.34;4984591;28;20054;-91
2022/12/30 10:41:07;;;;;;;20.13;5.97;;;;;;;6.25;100.00;100460.41;4984273;28;20076;-92
2022/12/30 10:43:52;;;;;;;107.10;29.55;;;;;;;6.07;100.00;100420.25;4999558;28;20470;-91
2022/12/30 10:46:52;;;;;;;20.80;5.82;;;;;;;6.18;100.00;100434.44;4998135;28;20448;-91
2022/12/30 10:49:33;;;;;;;27.08;6.85;;;;;;;6.23;100.00;100437.72;4985670;28;20027;-91
2022/12/30 10:52:00;;;;;;;18.52;6.25;;;;;;;6.15;100.00;100410.13;4982308;28;21412;-91
2022/12/30 10:54:26;;;;;;;26.58;7.93;;;;;;;6.21;100.00;100417.84;4985017;28;20060;-90
2022/12/30 10:56:51;;;;;;;26.83;5.20;;;;;;;6.25;100.00;100402.06;4999879;28;20470;-92
2022/12/30 10:59:21;;;;;;;15.55;6.30;;;;;;;6.29;100.00;100400.16;4983760;28;20029;-91
2022/12/30 11:01:48;;;;;;;16.95;4.95;;;;;;;6.29;100.00;100383.50;4980838;28;20091;-92
2022/12/30 11:04:41;;;;;;;20.48;5.03;;;;;;;6.29;100.00;100358.47;4983482;28;20041;-91
2022/12/30 11:07:17;;;;;;;27.08;5.47;;;;;;;6.39;100.00;100375.75;4983521;28;20030;-91
2022/12/30 11:09:44;;;;;;;16.58;4.78;;;;;;;6.48;100.00;100379.16;4985551;28;20041;-91
2022/12/30 11:15:22;;;;;;;16.27;6.40;;;;;;;6.49;100.00;100348.22;4985019;28;20437;-91
2022/12/30 11:17:52;;;;;;;24.58;6.80;;;;;;;6.50;100.00;100335.13;4982260;28;20038;-92
2022/12/30 11:20:34;;;;;;;21.50;4.68;;;;;;;6.55;100.00;100329.25;4994872;28;20088;-91
2022/12/30 11:23:02;;;;;;;33.38;6.65;;;;;;;6.57;100.00;100310.22;4981525;28;20647;-92
2022/12/30 11:25:30;;;;;;;20.13;4.47;;;;;;;6.59;100.00;100296.78;4986350;28;20041;-91
2022/12/30 11:28:01;;;;;;;17.35;4.68;;;;;;;6.62;100.00;100296.06;4983162;28;20030;-91
2022/12/30 11:30:43;;;;;;;15.82;5.85;;;;;;;6.66;100.00;100291.38;4984850;28;20089;-92
2022/12/30 11:33:18;;;;;;;17.60;4.25;;;;;;;6.74;100.00;100280.38;4999329;28;20037;-90
2022/12/30 11:35:47;;;;;;;16.80;4.18;;;;;;;6.74;100.00;100269.25;4984709;28;20026;-92
2022/12/30 11:38:33;;;;;;;42.17;5.82;;;;;;;6.77;100.00;100260.16;4981971;28;20061;-90
2022/12/30 11:41:27;;;;;;;16.13;3.83;;;;;;;6.83;100.00;100239.22;4982617;28;20034;-90
2022/12/30 11:43:58;;;;;;;11.45;3.45;;;;;;;6.87;100.00;100234.53;5001474;28;20509;-90
2022/12/30 11:46:30;;;;;;;18.90;3.88;;;;;;;6.82;100.00;100216.19;5002479;28;20033;-91
2022/12/30 11:48:58;;;;;;;18.55;4.93;;;;;;;6.97;100.00;100213.66;4987064;28;20030;-91
2022/12/30 11:51:41;;;;;;;12.30;4.45;;;;;;;6.92;100.00;100193.31;4987410;28;20367;-91
2022/12/30 11:54:14;;;;;;;;;;;;;;;7.01;100.00;100190.28;4999704;28;20053;-90
2022/12/30 11:56:56;;;;;;;22.67;3.45;;;;;;;7.07;100.00;100183.25;4987355;28;19914;-91
2022/12/30 11:59:33;;;;;;;17.10;3.90;;;;;;;7.03;100.00;100148.19;5003304;28;20030;-90
2022/12/30 12:02:03;;;;;;;11.38;3.97;;;;;;;7.19;100.00;100134.13;4985726;28;20522;-91
2022/12/30 12:04:40;;;;;;;15.70;4.03;;;;;;;7.16;100.00;100135.66;5002097;28;20078;-91
2022/12/30 12:07:21;;;;;;;15.25;3.63;;;;;;;7.24;100.00;100131.03;4987155;28;20566;-91
2022/12/30 12:10:05;;;;;;;9.00;3.25;;;;;;;7.17;100.00;100095.53;5003078;28;20106;-90
2022/12/30 12:13:22;;;;;;;14.15;3.97;;;;;;;7.36;100.00;100105.78;4985527;28;20064;-90
2022/12/30 12:15:52;;;;;;;17.00;4.00;;;;;;;7.29;100.00;100083.38;4983368;28;20812;-91
2022/12/30 12:18:53;;;;;;;19.00;3.92;;;;;;;7.34;100.00;100058.03;4985000;28;20491;-91
2022/12/30 12:21:28;;;;;;;17.05;4.28;;;;;;;7.34;100.00;100058.03;4997684;28;20049;-90
2022/12/30 12:24:05;;;;;;;12.00;3.72;;;;;;;7.44;100.00;100059.31;4984349;28;20125;-91
2022/12/30 12:26:38;;;;;;;9.38;2.55;;;;;;;7.31;100.00;100026.16;5001392;28;20065;-90